sensor_id;sensor_type;location;lat;lon;timestamp;pressure;altitude;pressure_sealevel;temperature;humidity
34328;BME280;20588;48.840;10.064;2023-01-28T00:01:15;96991.97;;;-0.09;nan
34328;BME280;20588;48.840;10.064;2023-01-28T00:03:41;96985.34;;;-0.10;nan
34328;BME280;20588;48.840;10.064;2023-01-28T00:06:13;96986.78;;;-0.08;nan
34328;BME280;20588;48.840;10.064;2023-01-28T00:08:40;96981.59;;;-0.06;nan
34328;BME280;20588;48.840;10.064;2023-01-28T00:11:08;96983.22;;;-0.05;nan
34328;BME280;20588;48.840;10.064;2023-01-28T00:13:35;96981.59;;;-0.06;nan
34328;BME280;20588;48.840;10.064;2023-01-28T00:16:04;96977.22;;;-0.04;nan
34328;BME280;20588;48.840;10.064;2023-01-28T00:18:31;96978.16;;;-0.05;nan
34328;BME280;20588;48.840;10.064;2023-01-28T00:21:06;96978.44;;;-0.08;nan
34328;BME280;20588;48.840;10.064;2023-01-28T00:23:35;96982.41;;;-0.06;nan
34328;BME280;20588;48.840;10.064;2023-01-28T00:26:03;96988.41;;;-0.07;nan
34328;BME280;20588;48.840;10.064;2023-01-28T00:28:30;96993.47;;;-0.07;nan
34328;BME280;20588;48.840;10.064;2023-01-28T00:30:56;96990.00;;;-0.06;nan
34328;BME280;20588;48.840;10.064;2023-01-28T00:33:22;96991.72;;;-0.06;nan
34328;BME280;20588;48.840;10.064;2023-01-28T00:35:57;96985.75;;;-0.05;nan
34328;BME280;20588;48.840;10.064;2023-01-28T00:38:23;96982.41;;;-0.06;nan
34328;BME280;20588;48.840;10.064;2023-01-28T00:40:49;96984.41;;;-0.09;nan
34328;BME280;20588;48.840;10.064;2023-01-28T00:43:15;96979.34;;;-0.09;nan
34328;BME280;20588;48.840;10.064;2023-01-28T00:45:41;96982.69;;;-0.09;nan
34328;BME280;20588;48.840;10.064;2023-01-28T00:48:07;96981.88;;;-0.09;nan
34328;BME280;20588;48.840;10.064;2023-01-28T00:50:33;96977.63;;;-0.09;nan
34328;BME280;20588;48.840;10.064;2023-01-28T00:53:00;96976.69;;;-0.08;nan
34328;BME280;20588;48.840;10.064;2023-01-28T00:55:26;96976.56;;;-0.06;nan
34328;BME280;20588;48.840;10.064;2023-01-28T00:57:53;96979.09;;;-0.06;nan
34328;BME280;20588;48.840;10.064;2023-01-28T01:00:19;96976.81;;;-0.09;nan
34328;BME280;20588;48.840;10.064;2023-01-28T01:02:50;96977.50;;;-0.07;nan
34328;BME280;20588;48.840;10.064;2023-01-28T01:05:17;96973.25;;;-0.07;nan
34328;BME280;20588;48.840;10.064;2023-01-28T01:07:43;96980.03;;;-0.07;nan
34328;BME280;20588;48.840;10.064;2023-01-28T01:10:11;96979.75;;;-0.04;nan
34328;BME280;20588;48.840;10.064;2023-01-28T01:12:38;96986.66;;;-0.06;nan
34328;BME280;20588;48.840;10.064;2023-01-28T01:15:05;96983.22;;;-0.05;nan
34328;BME280;20588;48.840;10.064;2023-01-28T01:17:34;96984.00;;;-0.05;nan
34328;BME280;20588;48.840;10.064;2023-01-28T01:20:03;96986.41;;;-0.03;nan
34328;BME280;20588;48.840;10.064;2023-01-28T01:22:35;96990.16;;;0.03;nan
34328;BME280;20588;48.840;10.064;2023-01-28T01:25:01;96988.44;;;0.03;nan
34328;BME280;20588;48.840;10.064;2023-01-28T01:27:29;96998.81;;;0.00;nan
34328;BME280;20588;48.840;10.064;2023-01-28T01:29:55;96995.19;;;0.03;nan
34328;BME280;20588;48.840;10.064;2023-01-28T01:32:21;96994.13;;;0.05;nan
34328;BME280;20588;48.840;10.064;2023-01-28T01:34:47;96996.78;;;0.03;nan
34328;BME280;20588;48.840;10.064;2023-01-28T01:37:13;97000.25;;;0.03;nan
34328;BME280;20588;48.840;10.064;2023-01-28T01:39:39;97004.38;;;0.03;nan
34328;BME280;20588;48.840;10.064;2023-01-28T01:42:08;97006.91;;;0.03;nan
34328;BME280;20588;48.840;10.064;2023-01-28T01:44:55;97000.66;;;0.08;nan
34328;BME280;20588;48.840;10.064;2023-01-28T01:47:30;97013.56;;;0.05;nan
34328;BME280;20588;48.840;10.064;2023-01-28T01:50:02;97005.59;;;0.09;nan
34328;BME280;20588;48.840;10.064;2023-01-28T01:52:32;97009.03;;;0.08;nan
34328;BME280;20588;48.840;10.064;2023-01-28T01:55:02;97021.94;;;0.05;nan
34328;BME280;20588;48.840;10.064;2023-01-28T01:57:32;97019.03;;;0.10;nan
34328;BME280;20588;48.840;10.064;2023-01-28T02:00:00;97018.50;;;0.06;nan
34328;BME280;20588;48.840;10.064;2023-01-28T02:02:44;97021.03;;;0.06;nan
34328;BME280;20588;48.840;10.064;2023-01-28T02:05:13;97017.28;;;0.10;nan
34328;BME280;20588;48.840;10.064;2023-01-28T02:07:42;97014.09;;;0.08;nan
34328;BME280;20588;48.840;10.064;2023-01-28T02:10:10;97011.97;;;0.03;nan
34328;BME280;20588;48.840;10.064;2023-01-28T02:12:39;97017.56;;;0.07;nan
34328;BME280;20588;48.840;10.064;2023-01-28T02:15:11;97012.38;;;0.09;nan
34328;BME280;20588;48.840;10.064;2023-01-28T02:17:39;97018.25;;;0.09;nan
34328;BME280;20588;48.840;10.064;2023-01-28T02:20:08;97012.50;;;0.07;nan
34328;BME280;20588;48.840;10.064;2023-01-28T02:28:49;97018.38;;;0.08;nan
34328;BME280;20588;48.840;10.064;2023-01-28T02:31:38;97017.03;;;0.13;nan
34328;BME280;20588;48.840;10.064;2023-01-28T02:34:37;97011.28;;;0.11;nan
34328;BME280;20588;48.840;10.064;2023-01-28T02:37:33;97012.38;;;0.09;nan
34328;BME280;20588;48.840;10.064;2023-01-28T02:40:02;97018.25;;;0.09;nan
34328;BME280;20588;48.840;10.064;2023-01-28T02:42:33;97015.72;;;0.09;nan
34328;BME280;20588;48.840;10.064;2023-01-28T02:45:00;97012.63;;;0.06;nan
34328;BME280;20588;48.840;10.064;2023-01-28T02:47:26;97012.09;;;0.12;nan
34328;BME280;20588;48.840;10.064;2023-01-28T02:50:17;97012.66;;;0.15;nan
34328;BME280;20588;48.840;10.064;2023-01-28T02:53:50;97013.56;;;0.14;nan
34328;BME280;20588;48.840;10.064;2023-01-28T02:59:10;97006.66;;;0.16;nan
34328;BME280;20588;48.840;10.064;2023-01-28T03:04:37;97007.47;;;0.17;nan
34328;BME280;20588;48.840;10.064;2023-01-28T03:07:07;97006.38;;;0.19;nan
34328;BME280;20588;48.840;10.064;2023-01-28T03:09:35;97010.75;;;0.17;nan
34328;BME280;20588;48.840;10.064;2023-01-28T03:12:07;97004.94;;;0.17;nan
34328;BME280;20588;48.840;10.064;2023-01-28T03:14:59;97012.13;;;0.21;nan
34328;BME280;20588;48.840;10.064;2023-01-28T03:17:48;97007.84;;;0.22;nan
34328;BME280;20588;48.840;10.064;2023-01-28T03:20:44;97022.22;;;0.21;nan
34328;BME280;20588;48.840;10.064;2023-01-28T03:23:58;97021.69;;;0.18;nan
34328;BME280;20588;48.840;10.064;2023-01-28T03:29:47;97005.06;;;0.15;nan
34328;BME280;20588;48.840;10.064;2023-01-28T03:32:35;97006.91;;;0.13;nan
34328;BME280;20588;48.840;10.064;2023-01-28T03:35:22;97007.72;;;0.14;nan
34328;BME280;20588;48.840;10.064;2023-01-28T03:38:09;97021.16;;;0.14;nan
34328;BME280;20588;48.840;10.064;2023-01-28T03:40:59;97018.63;;;0.14;nan
34328;BME280;20588;48.840;10.064;2023-01-28T03:43:26;97020.22;;;0.06;nan
34328;BME280;20588;48.840;10.064;2023-01-28T03:45:53;97032.75;;;0.07;nan
34328;BME280;20588;48.840;10.064;2023-01-28T03:48:22;97025.00;;;0.09;nan
34328;BME280;20588;48.840;10.064;2023-01-28T03:50:49;97024.47;;;0.05;nan
34328;BME280;20588;48.840;10.064;2023-01-28T03:53:17;97038.06;;;0.14;nan
34328;BME280;20588;48.840;10.064;2023-01-28T03:55:45;97036.06;;;0.17;nan
34328;BME280;20588;48.840;10.064;2023-01-28T03:58:12;97038.84;;;0.14;nan
34328;BME280;20588;48.840;10.064;2023-01-28T04:00:39;97039.41;;;0.18;nan
34328;BME280;20588;48.840;10.064;2023-01-28T04:03:14;97033.25;;;0.20;nan
34328;BME280;20588;48.840;10.064;2023-01-28T04:05:58;97035.00;;;0.20;nan
34328;BME280;20588;48.840;10.064;2023-01-28T04:08:25;97038.59;;;0.17;nan
34328;BME280;20588;48.840;10.064;2023-01-28T04:10:51;97031.81;;;0.27;nan
34328;BME280;20588;48.840;10.064;2023-01-28T04:13:17;97040.03;;;0.29;nan
34328;BME280;20588;48.840;10.064;2023-01-28T04:15:44;97039.28;;;0.29;nan
34328;BME280;20588;48.840;10.064;2023-01-28T04:18:10;97041.25;;;0.25;nan
34328;BME280;20588;48.840;10.064;2023-01-28T04:20:37;97038.06;;;0.23;nan
34328;BME280;20588;48.840;10.064;2023-01-28T04:23:04;97042.34;;;0.23;nan
34328;BME280;20588;48.840;10.064;2023-01-28T04:25:31;97042.72;;;0.28;nan
34328;BME280;20588;48.840;10.064;2023-01-28T04:27:57;97043.78;;;0.25;nan
34328;BME280;20588;48.840;10.064;2023-01-28T04:30:23;97050.84;;;0.31;nan
34328;BME280;20588;48.840;10.064;2023-01-28T04:32:49;97053.63;;;0.28;nan
34328;BME280;20588;48.840;10.064;2023-01-28T04:35:17;97054.44;;;0.29;nan
34328;BME280;20588;48.840;10.064;2023-01-28T04:37:43;97059.66;;;0.27;nan
34328;BME280;20588;48.840;10.064;2023-01-28T04:40:11;97059.38;;;0.30;nan
34328;BME280;20588;48.840;10.064;2023-01-28T04:42:38;97059.88;;;0.34;nan
34328;BME280;20588;48.840;10.064;2023-01-28T04:45:05;97063.63;;;0.30;nan
34328;BME280;20588;48.840;10.064;2023-01-28T04:47:31;97061.63;;;0.33;nan
34328;BME280;20588;48.840;10.064;2023-01-28T04:49:57;97064.44;;;0.30;nan
34328;BME280;20588;48.840;10.064;2023-01-28T04:52:23;97069.22;;;0.33;nan
34328;BME280;20588;48.840;10.064;2023-01-28T04:54:49;97068.69;;;0.30;nan
34328;BME280;20588;48.840;10.064;2023-01-28T04:57:15;97078.81;;;0.39;nan
34328;BME280;20588;48.840;10.064;2023-01-28T04:59:41;97083.75;;;0.41;nan
34328;BME280;20588;48.840;10.064;2023-01-28T05:02:07;97077.59;;;0.43;nan
34328;BME280;20588;48.840;10.064;2023-01-28T05:04:33;97080.66;;;0.37;nan
34328;BME280;20588;48.840;10.064;2023-01-28T05:06:59;97083.06;;;0.39;nan
34328;BME280;20588;48.840;10.064;2023-01-28T05:09:25;97083.63;;;0.42;nan
34328;BME280;20588;48.840;10.064;2023-01-28T05:11:51;97084.38;;;0.43;nan
34328;BME280;20588;48.840;10.064;2023-01-28T05:14:17;97085.88;;;0.36;nan
34328;BME280;20588;48.840;10.064;2023-01-28T05:16:43;97081.75;;;0.35;nan
34328;BME280;20588;48.840;10.064;2023-01-28T05:19:09;97083.59;;;0.33;nan
34328;BME280;20588;48.840;10.064;2023-01-28T05:21:35;97085.31;;;0.32;nan
34328;BME280;20588;48.840;10.064;2023-01-28T05:24:01;97084.78;;;0.38;nan
34328;BME280;20588;48.840;10.064;2023-01-28T05:26:27;97082.53;;;0.45;nan
34328;BME280;20588;48.840;10.064;2023-01-28T05:28:53;97082.66;;;0.43;nan
34328;BME280;20588;48.840;10.064;2023-01-28T05:31:19;97090.78;;;0.37;nan
34328;BME280;20588;48.840;10.064;2023-01-28T05:33:45;97087.06;;;0.41;nan
34328;BME280;20588;48.840;10.064;2023-01-28T05:36:11;97082.28;;;0.29;nan
34328;BME280;20588;48.840;10.064;2023-01-28T05:38:37;97084.91;;;0.37;nan
34328;BME280;20588;48.840;10.064;2023-01-28T05:41:04;97087.84;;;0.32;nan
34328;BME280;20588;48.840;10.064;2023-01-28T05:43:30;97081.34;;;0.30;nan
34328;BME280;20588;48.840;10.064;2023-01-28T05:45:56;97079.47;;;0.32;nan
34328;BME280;20588;48.840;10.064;2023-01-28T05:48:22;97083.47;;;0.25;nan
34328;BME280;20588;48.840;10.064;2023-01-28T05:50:48;97081.72;;;0.25;nan
34328;BME280;20588;48.840;10.064;2023-01-28T05:53:14;97084.25;;;0.25;nan
34328;BME280;20588;48.840;10.064;2023-01-28T05:55:40;97081.59;;;0.27;nan
34328;BME280;20588;48.840;10.064;2023-01-28T05:58:06;97096.66;;;0.28;nan
34328;BME280;20588;48.840;10.064;2023-01-28T06:00:32;97092.38;;;0.38;nan
34328;BME280;20588;48.840;10.064;2023-01-28T06:02:58;97086.00;;;0.34;nan
34328;BME280;20588;48.840;10.064;2023-01-28T06:05:24;97093.72;;;0.33;nan
34328;BME280;20588;48.840;10.064;2023-01-28T06:07:50;97092.13;;;0.32;nan
34328;BME280;20588;48.840;10.064;2023-01-28T06:10:17;97096.38;;;0.31;nan
34328;BME280;20588;48.840;10.064;2023-01-28T06:12:43;97097.72;;;0.35;nan
34328;BME280;20588;48.840;10.064;2023-01-28T06:15:09;97102.63;;;0.37;nan
34328;BME280;20588;48.840;10.064;2023-01-28T06:17:36;97109.44;;;0.36;nan
34328;BME280;20588;48.840;10.064;2023-01-28T06:20:02;97109.31;;;0.38;nan
34328;BME280;20588;48.840;10.064;2023-01-28T06:22:28;97108.78;;;0.44;nan
34328;BME280;20588;48.840;10.064;2023-01-28T06:24:54;97114.88;;;0.41;nan
34328;BME280;20588;48.840;10.064;2023-01-28T06:27:20;97123.69;;;0.47;nan
34328;BME280;20588;48.840;10.064;2023-01-28T06:29:46;97121.97;;;0.38;nan
34328;BME280;20588;48.840;10.064;2023-01-28T06:32:12;97121.41;;;0.34;nan
34328;BME280;20588;48.840;10.064;2023-01-28T06:34:38;97124.63;;;0.36;nan
34328;BME280;20588;48.840;10.064;2023-01-28T06:37:05;97131.41;;;0.36;nan
34328;BME280;20588;48.840;10.064;2023-01-28T06:39:31;97137.16;;;0.38;nan
34328;BME280;20588;48.840;10.064;2023-01-28T06:41:58;97144.19;;;0.34;nan
34328;BME280;20588;48.840;10.064;2023-01-28T06:44:24;97145.91;;;0.34;nan
34328;BME280;20588;48.840;10.064;2023-01-28T06:46:51;97149.13;;;0.36;nan
34328;BME280;20588;48.840;10.064;2023-01-28T06:49:17;97147.28;;;0.38;nan
34328;BME280;20588;48.840;10.064;2023-01-28T06:51:43;97153.91;;;0.39;nan
34328;BME280;20588;48.840;10.064;2023-01-28T06:54:09;97155.50;;;0.40;nan
34328;BME280;20588;48.840;10.064;2023-01-28T06:56:35;97162.97;;;0.41;nan
34328;BME280;20588;48.840;10.064;2023-01-28T06:59:01;97158.59;;;0.43;nan
34328;BME280;20588;48.840;10.064;2023-01-28T07:01:27;97160.19;;;0.44;nan
34328;BME280;20588;48.840;10.064;2023-01-28T07:03:53;97167.13;;;0.42;nan
34328;BME280;20588;48.840;10.064;2023-01-28T07:06:19;97165.25;;;0.44;nan
34328;BME280;20588;48.840;10.064;2023-01-28T07:08:45;97170.44;;;0.43;nan
34328;BME280;20588;48.840;10.064;2023-01-28T07:11:12;97166.03;;;0.45;nan
34328;BME280;20588;48.840;10.064;2023-01-28T07:13:38;97171.38;;;0.51;nan
34328;BME280;20588;48.840;10.064;2023-01-28T07:16:04;97178.19;;;0.51;nan
34328;BME280;20588;48.840;10.064;2023-01-28T07:18:31;97173.13;;;0.51;nan
34328;BME280;20588;48.840;10.064;2023-01-28T07:20:57;97182.16;;;0.53;nan
34328;BME280;20588;48.840;10.064;2023-01-28T07:23:23;97167.66;;;0.55;nan
34328;BME280;20588;48.840;10.064;2023-01-28T07:25:49;97180.44;;;0.54;nan
34328;BME280;20588;48.840;10.064;2023-01-28T07:28:15;97181.13;;;0.56;nan
34328;BME280;20588;48.840;10.064;2023-01-28T07:30:48;97180.31;;;0.55;nan
34328;BME280;20588;48.840;10.064;2023-01-28T07:33:14;97177.94;;;0.63;nan
34328;BME280;20588;48.840;10.064;2023-01-28T07:35:40;97172.59;;;0.66;nan
34328;BME280;20588;48.840;10.064;2023-01-28T07:38:06;97170.72;;;0.68;nan
34328;BME280;20588;48.840;10.064;2023-01-28T07:40:32;97179.00;;;0.70;nan
34328;BME280;20588;48.840;10.064;2023-01-28T07:42:58;97179.13;;;0.78;nan
34328;BME280;20588;48.840;10.064;2023-01-28T07:45:24;97181.25;;;0.83;nan
34328;BME280;20588;48.840;10.064;2023-01-28T07:47:55;97194.34;;;0.88;nan
34328;BME280;20588;48.840;10.064;2023-01-28T07:50:21;97188.47;;;0.87;nan
34328;BME280;20588;48.840;10.064;2023-01-28T07:52:47;97191.28;;;0.94;nan
34328;BME280;20588;48.840;10.064;2023-01-28T07:55:13;97195.13;;;0.98;nan
34328;BME280;20588;48.840;10.064;2023-01-28T07:57:54;97194.03;;;1.00;nan
34328;BME280;20588;48.840;10.064;2023-01-28T08:00:22;97203.38;;;1.09;nan
34328;BME280;20588;48.840;10.064;2023-01-28T08:02:48;97192.97;;;1.12;nan
34328;BME280;20588;48.840;10.064;2023-01-28T08:05:16;97201.66;;;1.19;nan
34328;BME280;20588;48.840;10.064;2023-01-28T08:07:43;97194.97;;;1.18;nan
34328;BME280;20588;48.840;10.064;2023-01-28T08:10:14;97197.75;;;1.25;nan
34328;BME280;20588;48.840;10.064;2023-01-28T08:12:40;97200.31;;;1.25;nan
34328;BME280;20588;48.840;10.064;2023-01-28T08:15:06;97205.09;;;1.28;nan
34328;BME280;20588;48.840;10.064;2023-01-28T08:17:33;97208.16;;;1.31;nan
34328;BME280;20588;48.840;10.064;2023-01-28T08:19:59;97213.88;;;1.33;nan
34328;BME280;20588;48.840;10.064;2023-01-28T08:22:26;97207.09;;;1.34;nan
34328;BME280;20588;48.840;10.064;2023-01-28T08:24:52;97211.47;;;1.41;nan
34328;BME280;20588;48.840;10.064;2023-01-28T08:27:18;97210.53;;;1.42;nan
34328;BME280;20588;48.840;10.064;2023-01-28T08:29:44;97219.47;;;1.46;nan
34328;BME280;20588;48.840;10.064;2023-01-28T08:32:11;97222.28;;;1.43;nan
34328;BME280;20588;48.840;10.064;2023-01-28T08:34:37;97224.00;;;1.43;nan
34328;BME280;20588;48.840;10.064;2023-01-28T08:37:02;97226.41;;;1.44;nan
34328;BME280;20588;48.840;10.064;2023-01-28T08:39:30;97230.16;;;1.40;nan
34328;BME280;20588;48.840;10.064;2023-01-28T08:41:56;97221.34;;;1.44;nan
34328;BME280;20588;48.840;10.064;2023-01-28T08:44:22;97216.28;;;1.44;nan
34328;BME280;20588;48.840;10.064;2023-01-28T08:46:48;97217.75;;;1.47;nan
34328;BME280;20588;48.840;10.064;2023-01-28T08:49:14;97221.06;;;1.47;nan
34328;BME280;20588;48.840;10.064;2023-01-28T08:51:40;97226.53;;;1.52;nan
34328;BME280;20588;48.840;10.064;2023-01-28T08:54:06;97225.72;;;1.52;nan
34328;BME280;20588;48.840;10.064;2023-01-28T08:56:32;97221.06;;;1.57;nan
34328;BME280;20588;48.840;10.064;2023-01-28T08:58:58;97226.00;;;1.58;nan
34328;BME280;20588;48.840;10.064;2023-01-28T09:01:24;97219.47;;;1.56;nan
34328;BME280;20588;48.840;10.064;2023-01-28T09:03:52;97230.94;;;1.60;nan
34328;BME280;20588;48.840;10.064;2023-01-28T09:06:18;97222.63;;;1.67;nan
34328;BME280;20588;48.840;10.064;2023-01-28T09:08:44;97225.03;;;1.78;nan
34328;BME280;20588;48.840;10.064;2023-01-28T09:11:10;97229.84;;;1.62;nan
34328;BME280;20588;48.840;10.064;2023-01-28T09:13:36;97228.25;;;1.61;nan
34328;BME280;20588;48.840;10.064;2023-01-28T09:16:04;97232.50;;;1.70;nan
34328;BME280;20588;48.840;10.064;2023-01-28T09:18:31;97236.75;;;1.79;nan
34328;BME280;20588;48.840;10.064;2023-01-28T09:20:57;97235.13;;;1.88;nan
34328;BME280;20588;48.840;10.064;2023-01-28T09:23:23;97235.75;;;2.00;nan
34328;BME280;20588;48.840;10.064;2023-01-28T09:25:49;97247.09;;;1.96;nan
34328;BME280;20588;48.840;10.064;2023-01-28T09:28:15;97246.06;;;1.98;nan
34328;BME280;20588;48.840;10.064;2023-01-28T09:30:41;97246.06;;;1.98;nan
34328;BME280;20588;48.840;10.064;2023-01-28T09:33:07;97238.81;;;2.03;nan
34328;BME280;20588;48.840;10.064;2023-01-28T09:35:34;97245.16;;;2.17;nan
34328;BME280;20588;48.840;10.064;2023-01-28T09:38:00;97251.72;;;2.19;nan
34328;BME280;20588;48.840;10.064;2023-01-28T09:40:29;97253.81;;;2.24;nan
34328;BME280;20588;48.840;10.064;2023-01-28T09:45:48;97260.63;;;2.23;nan
34328;BME280;20588;48.840;10.064;2023-01-28T09:48:21;97264.94;;;2.23;nan
34328;BME280;20588;48.840;10.064;2023-01-28T09:50:50;97264.50;;;2.27;nan
34328;BME280;20588;48.840;10.064;2023-01-28T09:55:55;97268.53;;;2.47;nan
34328;BME280;20588;48.840;10.064;2023-01-28T09:58:21;97269.88;;;2.51;nan
34328;BME280;20588;48.840;10.064;2023-01-28T10:01:03;97263.66;;;2.63;nan
34328;BME280;20588;48.840;10.064;2023-01-28T10:03:43;97264.69;;;2.70;nan
34328;BME280;20588;48.840;10.064;2023-01-28T10:06:18;97267.81;;;2.82;nan
34328;BME280;20588;48.840;10.064;2023-01-28T10:14:25;97268.28;;;2.95;nan
34328;BME280;20588;48.840;10.064;2023-01-28T10:17:15;97266.41;;;2.97;nan
34328;BME280;20588;48.840;10.064;2023-01-28T10:22:34;97268.28;;;2.95;nan
34328;BME280;20588;48.840;10.064;2023-01-28T10:25:06;97260.81;;;2.93;nan
34328;BME280;20588;48.840;10.064;2023-01-28T10:27:40;97261.88;;;2.91;nan
34328;BME280;20588;48.840;10.064;2023-01-28T10:30:25;97254.53;;;2.88;nan
34328;BME280;20588;48.840;10.064;2023-01-28T10:33:21;97254.47;;;2.80;nan
34328;BME280;20588;48.840;10.064;2023-01-28T10:35:49;97253.94;;;2.76;nan
34328;BME280;20588;48.840;10.064;2023-01-28T10:38:20;97259.06;;;2.67;nan
34328;BME280;20588;48.840;10.064;2023-01-28T10:40:47;97256.81;;;2.64;nan
34328;BME280;20588;48.840;10.064;2023-01-28T10:43:16;97256.31;;;2.60;nan
34328;BME280;20588;48.840;10.064;2023-01-28T10:46:20;97253.53;;;2.54;nan
34328;BME280;20588;48.840;10.064;2023-01-28T10:49:10;97250.63;;;2.49;nan
34328;BME280;20588;48.840;10.064;2023-01-28T10:51:40;97248.38;;;2.46;nan
34328;BME280;20588;48.840;10.064;2023-01-28T10:54:26;97250.91;;;2.46;nan
34328;BME280;20588;48.840;10.064;2023-01-28T10:56:58;97250.13;;;2.45;nan
34328;BME280;20588;48.840;10.064;2023-01-28T10:59:32;97248.38;;;2.46;nan
34328;BME280;20588;48.840;10.064;2023-01-28T11:02:03;97245.41;;;2.50;nan
34328;BME280;20588;48.840;10.064;2023-01-28T11:04:33;97253.66;;;2.62;nan
34328;BME280;20588;48.840;10.064;2023-01-28T11:07:05;97244.25;;;2.62;nan
34328;BME280;20588;48.840;10.064;2023-01-28T11:09:48;97243.41;;;2.71;nan
34328;BME280;20588;48.840;10.064;2023-01-28T11:12:25;97249.31;;;2.89;nan
34328;BME280;20588;48.840;10.064;2023-01-28T11:15:04;97244.84;;;3.01;nan
34328;BME280;20588;48.840;10.064;2023-01-28T11:17:36;97249.13;;;3.18;nan
34328;BME280;20588;48.840;10.064;2023-01-28T11:20:11;97251.38;;;3.21;nan
34328;BME280;20588;48.840;10.064;2023-01-28T11:22:41;97241.25;;;3.29;nan
34328;BME280;20588;48.840;10.064;2023-01-28T11:25:35;97252.94;;;3.39;nan
34328;BME280;20588;48.840;10.064;2023-01-28T11:28:06;97253.81;;;3.48;nan
34328;BME280;20588;48.840;10.064;2023-01-28T11:30:37;97251.75;;;3.51;nan
34328;BME280;20588;48.840;10.064;2023-01-28T11:35:37;97262.22;;;3.66;nan
34328;BME280;20588;48.840;10.064;2023-01-28T11:38:10;97257.97;;;3.74;nan
34328;BME280;20588;48.840;10.064;2023-01-28T11:40:53;97256.22;;;3.75;nan
34328;BME280;20588;48.840;10.064;2023-01-28T11:43:22;97255.41;;;3.74;nan
34328;BME280;20588;48.840;10.064;2023-01-28T11:46:19;97260.06;;;3.79;nan
34328;BME280;20588;48.840;10.064;2023-01-28T11:49:13;97268.00;;;3.76;nan
34328;BME280;20588;48.840;10.064;2023-01-28T11:51:56;97263.88;;;3.75;nan
34328;BME280;20588;48.840;10.064;2023-01-28T12:00:20;97243.75;;;3.90;nan
34328;BME280;20588;48.840;10.064;2023-01-28T12:03:01;97248.75;;;3.99;nan
34328;BME280;20588;48.840;10.064;2023-01-28T12:08:49;97238.75;;;4.06;nan
34328;BME280;20588;48.840;10.064;2023-01-28T12:11:34;97233.22;;;4.18;nan
34328;BME280;20588;48.840;10.064;2023-01-28T12:17:13;97238.59;;;4.41;nan
34328;BME280;20588;48.840;10.064;2023-01-28T12:19:52;97234.97;;;4.51;nan
34328;BME280;20588;48.840;10.064;2023-01-28T12:27:57;97232.66;;;4.74;nan
34328;BME280;20588;48.840;10.064;2023-01-28T12:30:53;97231.56;;;4.84;nan
34328;BME280;20588;48.840;10.064;2023-01-28T12:36:29;97227.44;;;4.99;nan
34328;BME280;20588;48.840;10.064;2023-01-28T12:39:11;97227.78;;;5.28;nan
34328;BME280;20588;48.840;10.064;2023-01-28T12:41:46;97231.28;;;5.43;nan
34328;BME280;20588;48.840;10.064;2023-01-28T12:44:31;97229.34;;;5.53;nan
34328;BME280;20588;48.840;10.064;2023-01-28T12:47:09;97237.16;;;5.44;nan
34328;BME280;20588;48.840;10.064;2023-01-28T12:49:49;97232.41;;;5.25;nan
34328;BME280;20588;48.840;10.064;2023-01-28T12:52:24;97227.75;;;5.12;nan
34328;BME280;20588;48.840;10.064;2023-01-28T12:57:33;97231.53;;;4.76;nan
34328;BME280;20588;48.840;10.064;2023-01-28T13:02:44;97232.13;;;4.54;nan
34328;BME280;20588;48.840;10.064;2023-01-28T13:05:21;97241.59;;;4.36;nan
34328;BME280;20588;48.840;10.064;2023-01-28T13:08:02;97237.88;;;4.23;nan
34328;BME280;20588;48.840;10.064;2023-01-28T13:10:35;97237.28;;;4.03;nan
34328;BME280;20588;48.840;10.064;2023-01-28T13:13:03;97239.47;;;3.90;nan
34328;BME280;20588;48.840;10.064;2023-01-28T13:15:30;97241.16;;;3.82;nan
34328;BME280;20588;48.840;10.064;2023-01-28T13:20:50;97243.97;;;3.53;nan
34328;BME280;20588;48.840;10.064;2023-01-28T13:28:50;97238.88;;;3.10;nan
34328;BME280;20588;48.840;10.064;2023-01-28T13:31:19;97246.78;;;3.07;nan
34328;BME280;20588;48.840;10.064;2023-01-28T13:34:01;97248.81;;;2.86;nan
34328;BME280;20588;48.840;10.064;2023-01-28T13:36:33;97252.84;;;2.79;nan
34328;BME280;20588;48.840;10.064;2023-01-28T13:39:21;97248.56;;;2.79;nan
34328;BME280;20588;48.840;10.064;2023-01-28T13:41:49;97241.91;;;2.78;nan
34328;BME280;20588;48.840;10.064;2023-01-28T13:46:57;97249.28;;;2.72;nan
34328;BME280;20588;48.840;10.064;2023-01-28T13:49:43;97243.25;;;2.55;nan
34328;BME280;20588;48.840;10.064;2023-01-28T13:55:05;97246.94;;;2.61;nan
34328;BME280;20588;48.840;10.064;2023-01-28T14:00:42;97252.97;;;2.60;nan
34328;BME280;20588;48.840;10.064;2023-01-28T14:06:23;97250.19;;;2.53;nan
34328;BME280;20588;48.840;10.064;2023-01-28T14:19:57;97271.22;;;2.46;nan
34328;BME280;20588;48.840;10.064;2023-01-28T14:22:23;97278.41;;;2.50;nan
34328;BME280;20588;48.840;10.064;2023-01-28T14:24:49;97280.59;;;2.45;nan
34328;BME280;20588;48.840;10.064;2023-01-28T14:27:24;97286.19;;;2.49;nan
34328;BME280;20588;48.840;10.064;2023-01-28T14:32:35;97284.63;;;2.38;nan
34328;BME280;20588;48.840;10.064;2023-01-28T14:35:07;97281.03;;;2.41;nan
34328;BME280;20588;48.840;10.064;2023-01-28T14:37:34;97286.13;;;2.31;nan
34328;BME280;20588;48.840;10.064;2023-01-28T14:40:03;97290.97;;;2.25;nan
34328;BME280;20588;48.840;10.064;2023-01-28T14:42:36;97300.59;;;2.21;nan
34328;BME280;20588;48.840;10.064;2023-01-28T14:47:58;97300.06;;;2.18;nan
34328;BME280;20588;48.840;10.064;2023-01-28T14:50:48;97301.00;;;2.17;nan
34328;BME280;20588;48.840;10.064;2023-01-28T14:56:12;97312.22;;;2.14;nan
34328;BME280;20588;48.840;10.064;2023-01-28T14:59:13;97307.97;;;2.15;nan
34328;BME280;20588;48.840;10.064;2023-01-28T15:01:32;97316.41;;;2.06;nan
34328;BME280;20588;48.840;10.064;2023-01-28T15:03:58;97316.25;;;2.07;nan
34328;BME280;20588;48.840;10.064;2023-01-28T15:06:43;97323.22;;;2.05;nan
34328;BME280;20588;48.840;10.064;2023-01-28T15:09:12;97323.34;;;2.04;nan
34328;BME280;20588;48.840;10.064;2023-01-28T15:11:41;97325.88;;;2.04;nan
34328;BME280;20588;48.840;10.064;2023-01-28T15:14:29;97320.81;;;2.04;nan
34328;BME280;20588;48.840;10.064;2023-01-28T15:16:56;97325.47;;;2.08;nan